sensor_id;sensor_type;location;lat;lon;timestamp;pressure;altitude;pressure_sealevel;temperature;humidity
37420;BME280;47344;52.374;4.816;2023-02-19T00:00:50;101693.0;;;10.78;100.0
37420;BME280;47344;52.374;4.816;2023-02-19T00:02:26;101689.0;;;10.72;100.0
37420;BME280;47344;52.374;4.816;2023-02-19T00:05:41;101685.0;;;10.76;100.0
37420;BME280;47344;52.374;4.816;2023-02-19T00:07:19;101694.0;;;10.77;100.0
37420;BME280;47344;52.374;4.816;2023-02-19T00:08:56;101696.0;;;10.66;100.0
37420;BME280;47344;52.374;4.816;2023-02-19T00:12:09;101705.0;;;10.82;100.0
37420;BME280;47344;52.374;4.816;2023-02-19T00:13:48;101697.0;;;10.79;100.0
37420;BME280;47344;52.374;4.816;2023-02-19T00:15:25;101699.0;;;10.75;100.0
37420;BME280;47344;52.374;4.816;2023-02-19T00:17:02;101706.0;;;10.8;100.0
37420;BME280;47344;52.374;4.816;2023-02-19T00:20:15;101707.0;;;10.83;100.0
37420;BME280;47344;52.374;4.816;2023-02-19T00:21:53;101701.0;;;10.78;100.0
37420;BME280;47344;52.374;4.816;2023-02-19T00:23:29;101700.0;;;10.83;100.0
37420;BME280;47344;52.374;4.816;2023-02-19T00:26:43;101701.0;;;10.79;100.0
37420;BME280;47344;52.374;4.816;2023-02-19T00:28:20;101701.0;;;10.81;100.0
37420;BME280;47344;52.374;4.816;2023-02-19T00:29:58;101706.0;;;10.77;100.0
37420;BME280;47344;52.374;4.816;2023-02-19T00:33:11;101710.0;;;10.8;100.0
37420;BME280;47344;52.374;4.816;2023-02-19T00:34:48;101706.0;;;10.83;100.0
37420;BME280;47344;52.374;4.816;2023-02-19T00:36:25;101714.0;;;10.77;100.0
37420;BME280;47344;52.374;4.816;2023-02-19T00:38:02;101717.0;;;10.83;100.0
37420;BME280;47344;52.374;4.816;2023-02-19T00:41:20;101722.0;;;10.63;100.0
37420;BME280;47344;52.374;4.816;2023-02-19T00:42:57;101720.0;;;10.6;100.0
37420;BME280;47344;52.374;4.816;2023-02-19T00:44:33;101711.0;;;10.59;100.0
37420;BME280;47344;52.374;4.816;2023-02-19T00:47:46;101712.0;;;10.71;100.0
37420;BME280;47344;52.374;4.816;2023-02-19T00:49:23;101719.0;;;10.65;100.0
37420;BME280;47344;52.374;4.816;2023-02-19T00:50:59;101720.0;;;10.58;100.0
37420;BME280;47344;52.374;4.816;2023-02-19T00:52:36;101720.0;;;10.58;100.0
37420;BME280;47344;52.374;4.816;2023-02-19T00:55:49;101717.0;;;10.65;100.0
37420;BME280;47344;52.374;4.816;2023-02-19T00:57:25;101712.0;;;10.62;100.0
37420;BME280;47344;52.374;4.816;2023-02-19T00:59:03;101708.0;;;10.62;100.0
37420;BME280;47344;52.374;4.816;2023-02-19T01:02:16;101705.0;;;10.62;100.0
37420;BME280;47344;52.374;4.816;2023-02-19T01:03:53;101711.0;;;10.59;100.0
37420;BME280;47344;52.374;4.816;2023-02-19T01:05:30;101711.0;;;10.62;100.0
37420;BME280;47344;52.374;4.816;2023-02-19T01:08:44;101713.0;;;10.63;100.0
37420;BME280;47344;52.374;4.816;2023-02-19T01:10:20;101714.0;;;10.69;100.0
37420;BME280;47344;52.374;4.816;2023-02-19T01:11:56;101722.0;;;10.57;100.0
37420;BME280;47344;52.374;4.816;2023-02-19T01:13:34;101725.0;;;10.61;100.0
37420;BME280;47344;52.374;4.816;2023-02-19T01:16:47;101718.0;;;10.49;100.0
37420;BME280;47344;52.374;4.816;2023-02-19T01:18:23;101722.0;;;10.49;100.0
37420;BME280;47344;52.374;4.816;2023-02-19T01:19:59;101722.0;;;10.53;100.0
37420;BME280;47344;52.374;4.816;2023-02-19T01:23:12;101727.0;;;10.6;100.0
37420;BME280;47344;52.374;4.816;2023-02-19T01:24:48;101730.0;;;10.49;100.0
37420;BME280;47344;52.374;4.816;2023-02-19T01:26:26;101736.0;;;10.46;100.0
37420;BME280;47344;52.374;4.816;2023-02-19T01:29:41;101734.0;;;10.52;100.0
37420;BME280;47344;52.374;4.816;2023-02-19T01:31:20;101741.0;;;10.62;100.0
37420;BME280;47344;52.374;4.816;2023-02-19T01:32:57;101739.0;;;10.75;100.0
37420;BME280;47344;52.374;4.816;2023-02-19T01:34:34;101734.0;;;10.71;100.0
37420;BME280;47344;52.374;4.816;2023-02-19T01:37:48;101726.0;;;10.79;100.0
37420;BME280;47344;52.374;4.816;2023-02-19T01:39:25;101738.0;;;10.77;100.0
37420;BME280;47344;52.374;4.816;2023-02-19T01:41:05;101739.0;;;10.65;100.0
37420;BME280;47344;52.374;4.816;2023-02-19T01:45:27;101733.0;;;10.67;100.0
37420;BME280;47344;52.374;4.816;2023-02-19T01:47:04;101728.0;;;10.6;100.0
37420;BME280;47344;52.374;4.816;2023-02-19T01:50:19;101734.0;;;10.62;100.0
37420;BME280;47344;52.374;4.816;2023-02-19T01:51:57;101742.0;;;10.6;100.0
37420;BME280;47344;52.374;4.816;2023-02-19T01:53:39;101740.0;;;10.62;100.0
37420;BME280;47344;52.374;4.816;2023-02-19T01:55:19;101745.0;;;10.59;100.0
37420;BME280;47344;52.374;4.816;2023-02-19T01:58:35;101744.0;;;10.51;100.0
37420;BME280;47344;52.374;4.816;2023-02-19T02:00:15;101741.0;;;10.43;100.0
37420;BME280;47344;52.374;4.816;2023-02-19T02:01:52;101757.0;;;10.52;100.0
37420;BME280;47344;52.374;4.816;2023-02-19T02:05:09;101755.0;;;10.49;100.0
37420;BME280;47344;52.374;4.816;2023-02-19T02:06:52;101749.0;;;10.58;100.0
37420;BME280;47344;52.374;4.816;2023-02-19T02:10:19;101752.0;;;10.51;100.0
37420;BME280;47344;52.374;4.816;2023-02-19T02:11:56;101752.0;;;10.37;100.0
37420;BME280;47344;52.374;4.816;2023-02-19T02:15:12;101760.0;;;10.48;100.0
37420;BME280;47344;52.374;4.816;2023-02-19T02:16:54;101752.0;;;10.53;100.0
37420;BME280;47344;52.374;4.816;2023-02-19T02:18:45;101757.0;;;10.49;100.0
37420;BME280;47344;52.374;4.816;2023-02-19T02:20:36;101755.0;;;10.52;100.0
37420;BME280;47344;52.374;4.816;2023-02-19T02:24:26;101749.0;;;10.62;100.0
37420;BME280;47344;52.374;4.816;2023-02-19T02:26:44;101747.0;;;10.68;100.0
37420;BME280;47344;52.374;4.816;2023-02-19T02:28:35;101761.0;;;10.69;100.0
37420;BME280;47344;52.374;4.816;2023-02-19T02:30:32;101764.0;;;10.59;100.0
37420;BME280;47344;52.374;4.816;2023-02-19T02:32:15;101750.0;;;10.59;100.0
37420;BME280;47344;52.374;4.816;2023-02-19T02:33:58;101759.0;;;10.61;100.0
37420;BME280;47344;52.374;4.816;2023-02-19T02:35:44;101762.0;;;10.56;100.0
37420;BME280;47344;52.374;4.816;2023-02-19T02:37:22;101763.0;;;10.38;100.0
37420;BME280;47344;52.374;4.816;2023-02-19T02:40:46;101755.0;;;10.37;100.0
37420;BME280;47344;52.374;4.816;2023-02-19T02:42:26;101762.0;;;10.35;100.0
37420;BME280;47344;52.374;4.816;2023-02-19T02:44:03;101763.0;;;10.38;100.0
37420;BME280;47344;52.374;4.816;2023-02-19T02:45:40;101758.0;;;10.34;100.0
37420;BME280;47344;52.374;4.816;2023-02-19T02:49:23;101761.0;;;10.41;100.0
37420;BME280;47344;52.374;4.816;2023-02-19T02:51:05;101762.0;;;10.33;100.0
37420;BME280;47344;52.374;4.816;2023-02-19T02:55:08;101775.0;;;10.36;100.0
37420;BME280;47344;52.374;4.816;2023-02-19T02:56:48;101769.0;;;10.33;100.0
37420;BME280;47344;52.374;4.816;2023-02-19T02:58:27;101774.0;;;10.41;100.0
37420;BME280;47344;52.374;4.816;2023-02-19T03:02:21;101780.0;;;10.28;100.0
37420;BME280;47344;52.374;4.816;2023-02-19T03:04:02;101786.0;;;10.34;100.0
37420;BME280;47344;52.374;4.816;2023-02-19T03:06:00;101785.0;;;10.37;100.0
37420;BME280;47344;52.374;4.816;2023-02-19T03:07:44;101788.0;;;10.42;100.0
37420;BME280;47344;52.374;4.816;2023-02-19T03:09:24;101787.0;;;10.43;100.0
37420;BME280;47344;52.374;4.816;2023-02-19T03:19:22;101798.0;;;10.43;100.0
37420;BME280;47344;52.374;4.816;2023-02-19T03:22:43;101801.0;;;10.4;100.0
37420;BME280;47344;52.374;4.816;2023-02-19T03:26:11;101803.0;;;10.32;100.0
37420;BME280;47344;52.374;4.816;2023-02-19T03:27:49;101795.0;;;10.34;100.0
37420;BME280;47344;52.374;4.816;2023-02-19T03:32:48;101803.0;;;10.23;100.0
37420;BME280;47344;52.374;4.816;2023-02-19T03:34:32;101822.0;;;10.22;100.0
37420;BME280;47344;52.374;4.816;2023-02-19T03:36:13;101824.0;;;10.14;100.0
37420;BME280;47344;52.374;4.816;2023-02-19T03:38:02;101814.0;;;10.08;100.0
37420;BME280;47344;52.374;4.816;2023-02-19T03:41:24;101814.0;;;9.98;100.0
37420;BME280;47344;52.374;4.816;2023-02-19T03:43:12;101817.0;;;9.99;100.0
37420;BME280;47344;52.374;4.816;2023-02-19T03:45:01;101808.0;;;9.97;100.0
37420;BME280;47344;52.374;4.816;2023-02-19T03:46:54;101818.0;;;9.99;100.0
37420;BME280;47344;52.374;4.816;2023-02-19T03:48:36;101819.0;;;10.06;100.0
37420;BME280;47344;52.374;4.816;2023-02-19T03:52:01;101823.0;;;10.13;100.0
37420;BME280;47344;52.374;4.816;2023-02-19T03:53:50;101834.0;;;10.14;100.0
37420;BME280;47344;52.374;4.816;2023-02-19T03:55:33;101823.0;;;10.14;100.0
37420;BME280;47344;52.374;4.816;2023-02-19T03:57:17;101831.0;;;10.14;100.0
37420;BME280;47344;52.374;4.816;2023-02-19T03:59:00;101836.0;;;10.14;100.0
37420;BME280;47344;52.374;4.816;2023-02-19T04:02:30;101834.0;;;10.17;100.0
37420;BME280;47344;52.374;4.816;2023-02-19T04:04:14;101843.0;;;10.18;100.0
37420;BME280;47344;52.374;4.816;2023-02-19T04:05:57;101840.0;;;10.17;100.0
37420;BME280;47344;52.374;4.816;2023-02-19T04:07:41;101846.0;;;10.22;100.0
37420;BME280;47344;52.374;4.816;2023-02-19T04:09:22;101842.0;;;10.23;100.0
37420;BME280;47344;52.374;4.816;2023-02-19T04:12:42;101849.0;;;10.17;100.0
37420;BME280;47344;52.374;4.816;2023-02-19T04:16:06;101855.0;;;10.17;100.0
37420;BME280;47344;52.374;4.816;2023-02-19T04:17:59;101849.0;;;10.11;100.0
37420;BME280;47344;52.374;4.816;2023-02-19T04:19:39;101855.0;;;10.09;100.0
37420;BME280;47344;52.374;4.816;2023-02-19T04:22:57;101864.0;;;10.16;100.0
37420;BME280;47344;52.374;4.816;2023-02-19T04:24:37;101864.0;;;10.05;100.0
37420;BME280;47344;52.374;4.816;2023-02-19T04:26:19;101872.0;;;10.14;100.0
37420;BME280;47344;52.374;4.816;2023-02-19T04:29:35;101872.0;;;10.06;100.0
37420;BME280;47344;52.374;4.816;2023-02-19T04:31:12;101875.0;;;10.14;100.0
37420;BME280;47344;52.374;4.816;2023-02-19T04:32:49;101887.0;;;10.19;100.0
37420;BME280;47344;52.374;4.816;2023-02-19T04:34:26;101892.0;;;10.14;100.0
37420;BME280;47344;52.374;4.816;2023-02-19T04:39:19;101902.0;;;10.13;100.0
37420;BME280;47344;52.374;4.816;2023-02-19T04:40:56;101905.0;;;10.08;100.0
37420;BME280;47344;52.374;4.816;2023-02-19T04:44:10;101911.0;;;10.0;100.0
37420;BME280;47344;52.374;4.816;2023-02-19T04:45:47;101905.0;;;9.89;100.0
37420;BME280;47344;52.374;4.816;2023-02-19T04:47:24;101899.0;;;9.96;100.0
37420;BME280;47344;52.374;4.816;2023-02-19T04:49:00;101905.0;;;9.8;100.0
37420;BME280;47344;52.374;4.816;2023-02-19T04:52:14;101905.0;;;9.84;100.0
37420;BME280;47344;52.374;4.816;2023-02-19T04:53:52;101905.0;;;9.88;100.0
37420;BME280;47344;52.374;4.816;2023-02-19T04:55:27;101915.0;;;9.77;100.0
37420;BME280;47344;52.374;4.816;2023-02-19T04:58:42;101916.0;;;9.84;100.0
37420;BME280;47344;52.374;4.816;2023-02-19T05:00:19;101914.0;;;9.89;100.0
37420;BME280;47344;52.374;4.816;2023-02-19T05:01:57;101919.0;;;9.86;100.0
37420;BME280;47344;52.374;4.816;2023-02-19T05:03:34;101923.0;;;9.89;100.0
37420;BME280;47344;52.374;4.816;2023-02-19T05:06:47;101923.0;;;9.93;100.0
37420;BME280;47344;52.374;4.816;2023-02-19T05:08:24;101932.0;;;9.97;100.0
37420;BME280;47344;52.374;4.816;2023-02-19T05:10:01;101930.0;;;9.92;100.0
37420;BME280;47344;52.374;4.816;2023-02-19T05:13:14;101935.0;;;9.99;100.0
37420;BME280;47344;52.374;4.816;2023-02-19T05:14:50;101934.0;;;9.89;100.0
37420;BME280;47344;52.374;4.816;2023-02-19T05:16:27;101936.0;;;9.78;100.0
37420;BME280;47344;52.374;4.816;2023-02-19T05:19:40;101948.0;;;9.85;100.0
37420;BME280;47344;52.374;4.816;2023-02-19T05:21:16;101948.0;;;9.88;100.0
37420;BME280;47344;52.374;4.816;2023-02-19T05:22:54;101950.0;;;9.89;100.0
37420;BME280;47344;52.374;4.816;2023-02-19T05:24:31;101945.0;;;9.78;100.0
37420;BME280;47344;52.374;4.816;2023-02-19T05:27:48;101942.0;;;9.69;100.0
37420;BME280;47344;52.374;4.816;2023-02-19T05:29:24;101944.0;;;9.69;100.0
37420;BME280;47344;52.374;4.816;2023-02-19T05:31:04;101947.0;;;9.75;100.0
37420;BME280;47344;52.374;4.816;2023-02-19T05:34:18;101940.0;;;9.76;100.0
37420;BME280;47344;52.374;4.816;2023-02-19T05:35:55;101947.0;;;9.65;100.0
37420;BME280;47344;52.374;4.816;2023-02-19T05:37:31;101955.0;;;9.71;100.0
37420;BME280;47344;52.374;4.816;2023-02-19T05:39:10;101949.0;;;9.75;100.0
37420;BME280;47344;52.374;4.816;2023-02-19T05:42:24;101953.0;;;9.76;100.0
37420;BME280;47344;52.374;4.816;2023-02-19T05:44:00;101953.0;;;9.9;100.0
37420;BME280;47344;52.374;4.816;2023-02-19T05:45:38;101955.0;;;9.81;100.0
37420;BME280;47344;52.374;4.816;2023-02-19T05:48:52;101952.0;;;9.72;100.0
37420;BME280;47344;52.374;4.816;2023-02-19T05:50:31;101974.0;;;9.74;100.0
37420;BME280;47344;52.374;4.816;2023-02-19T05:52:08;101964.0;;;9.84;100.0
37420;BME280;47344;52.374;4.816;2023-02-19T05:55:21;101963.0;;;9.91;100.0
37420;BME280;47344;52.374;4.816;2023-02-19T05:56:58;101961.0;;;9.77;100.0
37420;BME280;47344;52.374;4.816;2023-02-19T05:58:34;101963.0;;;9.91;100.0
37420;BME280;47344;52.374;4.816;2023-02-19T06:00:13;101973.0;;;9.81;100.0
37420;BME280;47344;52.374;4.816;2023-02-19T06:03:29;101983.0;;;9.74;100.0
37420;BME280;47344;52.374;4.816;2023-02-19T06:05:07;101980.0;;;9.77;100.0
37420;BME280;47344;52.374;4.816;2023-02-19T06:06:43;101989.0;;;9.72;100.0
37420;BME280;47344;52.374;4.816;2023-02-19T06:09:57;101982.0;;;9.75;100.0
37420;BME280;47344;52.374;4.816;2023-02-19T06:11:34;101990.0;;;9.86;100.0
37420;BME280;47344;52.374;4.816;2023-02-19T06:13:11;101991.0;;;9.86;100.0
37420;BME280;47344;52.374;4.816;2023-02-19T06:14:47;101988.0;;;9.89;100.0
37420;BME280;47344;52.374;4.816;2023-02-19T06:18:01;101996.0;;;9.98;100.0
37420;BME280;47344;52.374;4.816;2023-02-19T06:19:38;102000.0;;;9.85;100.0
37420;BME280;47344;52.374;4.816;2023-02-19T06:21:15;101994.0;;;10.01;100.0
37420;BME280;47344;52.374;4.816;2023-02-19T06:24:30;102001.0;;;9.98;100.0
37420;BME280;47344;52.374;4.816;2023-02-19T06:26:08;102005.0;;;9.89;100.0
37420;BME280;47344;52.374;4.816;2023-02-19T06:27:46;102001.0;;;9.88;100.0
37420;BME280;47344;52.374;4.816;2023-02-19T06:29:23;102006.0;;;9.89;100.0
37420;BME280;47344;52.374;4.816;2023-02-19T06:32:37;102003.0;;;10.05;100.0
37420;BME280;47344;52.374;4.816;2023-02-19T06:34:14;102005.0;;;9.84;100.0
37420;BME280;47344;52.374;4.816;2023-02-19T06:35:52;102013.0;;;9.89;100.0
37420;BME280;47344;52.374;4.816;2023-02-19T06:39:05;102007.0;;;9.81;100.0
37420;BME280;47344;52.374;4.816;2023-02-19T06:40:42;102015.0;;;9.84;100.0
37420;BME280;47344;52.374;4.816;2023-02-19T06:42:18;102024.0;;;9.9;100.0
37420;BME280;47344;52.374;4.816;2023-02-19T06:45:32;102022.0;;;9.92;100.0
37420;BME280;47344;52.374;4.816;2023-02-19T06:47:09;102025.0;;;9.96;100.0
37420;BME280;47344;52.374;4.816;2023-02-19T06:48:45;102020.0;;;9.97;100.0
37420;BME280;47344;52.374;4.816;2023-02-19T06:50:23;102030.0;;;10.0;100.0
37420;BME280;47344;52.374;4.816;2023-02-19T06:53:37;102038.0;;;9.81;100.0
37420;BME280;47344;52.374;4.816;2023-02-19T06:55:14;102046.0;;;9.96;100.0
37420;BME280;47344;52.374;4.816;2023-02-19T06:56:51;102052.0;;;9.93;100.0
37420;BME280;47344;52.374;4.816;2023-02-19T07:00:07;102050.0;;;10.0;100.0
37420;BME280;47344;52.374;4.816;2023-02-19T07:01:44;102060.0;;;9.84;100.0
37420;BME280;47344;52.374;4.816;2023-02-19T07:03:21;102059.0;;;9.81;100.0
37420;BME280;47344;52.374;4.816;2023-02-19T07:04:58;102064.0;;;9.76;100.0
37420;BME280;47344;52.374;4.816;2023-02-19T07:08:11;102080.0;;;9.81;100.0
37420;BME280;47344;52.374;4.816;2023-02-19T07:09:48;102070.0;;;9.78;100.0
37420;BME280;47344;52.374;4.816;2023-02-19T07:11:25;102080.0;;;9.66;100.0
37420;BME280;47344;52.374;4.816;2023-02-19T07:14:40;102081.0;;;9.68;100.0
37420;BME280;47344;52.374;4.816;2023-02-19T07:16:17;102083.0;;;9.64;100.0
37420;BME280;47344;52.374;4.816;2023-02-19T07:17:54;102089.0;;;9.75;100.0
37420;BME280;47344;52.374;4.816;2023-02-19T07:21:11;102092.0;;;9.76;100.0
37420;BME280;47344;52.374;4.816;2023-02-19T07:22:48;102089.0;;;9.64;100.0
37420;BME280;47344;52.374;4.816;2023-02-19T07:26:03;102108.0;;;9.78;100.0
37420;BME280;47344;52.374;4.816;2023-02-19T07:29:18;102105.0;;;9.77;100.0
37420;BME280;47344;52.374;4.816;2023-02-19T07:30:59;102110.0;;;9.82;100.0
37420;BME280;47344;52.374;4.816;2023-02-19T07:32:39;102116.0;;;9.71;100.0
37420;BME280;47344;52.374;4.816;2023-02-19T07:34:16;102114.0;;;9.75;100.0
37420;BME280;47344;52.374;4.816;2023-02-19T07:37:29;102113.0;;;9.73;100.0
37420;BME280;47344;52.374;4.816;2023-02-19T07:39:05;102119.0;;;9.74;100.0
37420;BME280;47344;52.374;4.816;2023-02-19T07:40:49;102123.0;;;9.65;100.0
37420;BME280;47344;52.374;4.816;2023-02-19T07:44:02;102125.0;;;9.63;100.0
37420;BME280;47344;52.374;4.816;2023-02-19T07:45:39;102131.0;;;9.83;100.0
37420;BME280;47344;52.374;4.816;2023-02-19T07:47:15;102137.0;;;9.81;100.0
37420;BME280;47344;52.374;4.816;2023-02-19T07:48:51;102135.0;;;9.81;100.0
37420;BME280;47344;52.374;4.816;2023-02-19T07:52:03;102131.0;;;9.75;100.0
37420;BME280;47344;52.374;4.816;2023-02-19T07:53:39;102137.0;;;9.68;100.0
37420;BME280;47344;52.374;4.816;2023-02-19T07:55:16;102134.0;;;9.53;100.0
37420;BME280;47344;52.374;4.816;2023-02-19T07:58:29;102139.0;;;9.59;100.0
37420;BME280;47344;52.374;4.816;2023-02-19T08:00:08;102149.0;;;9.66;100.0
37420;BME280;47344;52.374;4.816;2023-02-19T08:03:01;102146.0;;;9.75;100.0
37420;BME280;47344;52.374;4.816;2023-02-19T08:04:38;102149.0;;;9.73;100.0
37420;BME280;47344;52.374;4.816;2023-02-19T08:06:15;102152.0;;;9.69;100.0
37420;BME280;47344;52.374;4.816;2023-02-19T08:07:53;102155.0;;;9.83;100.0
37420;BME280;47344;52.374;4.816;2023-02-19T08:13:28;102156.0;;;9.82;100.0
37420;BME280;47344;52.374;4.816;2023-02-19T08:15:06;102152.0;;;9.85;100.0
37420;BME280;47344;52.374;4.816;2023-02-19T08:16:47;102148.0;;;10.01;100.0
37420;BME280;47344;52.374;4.816;2023-02-19T08:18:26;102158.0;;;9.82;100.0
37420;BME280;47344;52.374;4.816;2023-02-19T08:21:41;102169.0;;;9.73;100.0
37420;BME280;47344;52.374;4.816;2023-02-19T08:23:20;102178.0;;;9.91;100.0
37420;BME280;47344;52.374;4.816;2023-02-19T08:24:56;102184.0;;;9.94;100.0
37420;BME280;47344;52.374;4.816;2023-02-19T08:26:32;102183.0;;;9.86;100.0
37420;BME280;47344;52.374;4.816;2023-02-19T08:29:47;102190.0;;;9.89;100.0
37420;BME280;47344;52.374;4.816;2023-02-19T08:31:23;102189.0;;;9.89;100.0
37420;BME280;47344;52.374;4.816;2023-02-19T08:33:00;102194.0;;;9.97;100.0
37420;BME280;47344;52.374;4.816;2023-02-19T08:36:13;102199.0;;;10.11;100.0
37420;BME280;47344;52.374;4.816;2023-02-19T08:37:50;102193.0;;;10.15;100.0
37420;BME280;47344;52.374;4.816;2023-02-19T08:39:31;102193.0;;;10.17;100.0
37420;BME280;47344;52.374;4.816;2023-02-19T08:41:10;102186.0;;;10.11;100.0
37420;BME280;47344;52.374;4.816;2023-02-19T08:44:24;102184.0;;;9.98;100.0
37420;BME280;47344;52.374;4.816;2023-02-19T08:46:00;102185.0;;;10.06;100.0
37420;BME280;47344;52.374;4.816;2023-02-19T08:47:38;102193.0;;;10.09;100.0
37420;BME280;47344;52.374;4.816;2023-02-19T08:50:54;102197.0;;;10.02;100.0
37420;BME280;47344;52.374;4.816;2023-02-19T08:52:30;102201.0;;;9.91;100.0
37420;BME280;47344;52.374;4.816;2023-02-19T08:54:07;102197.0;;;10.02;100.0
37420;BME280;47344;52.374;4.816;2023-02-19T08:57:20;102189.0;;;10.05;100.0
37420;BME280;47344;52.374;4.816;2023-02-19T08:58:56;102191.0;;;10.17;100.0
37420;BME280;47344;52.374;4.816;2023-02-19T09:00:32;102200.0;;;10.17;100.0
37420;BME280;47344;52.374;4.816;2023-02-19T09:02:08;102209.0;;;10.23;100.0
37420;BME280;47344;52.374;4.816;2023-02-19T09:05:20;102220.0;;;10.02;100.0
37420;BME280;47344;52.374;4.816;2023-02-19T09:06:57;102219.0;;;10.21;100.0
37420;BME280;47344;52.374;4.816;2023-02-19T09:08:33;102217.0;;;10.27;100.0
37420;BME280;47344;52.374;4.816;2023-02-19T09:11:48;102222.0;;;10.38;100.0
37420;BME280;47344;52.374;4.816;2023-02-19T09:13:25;102223.0;;;10.41;100.0
37420;BME280;47344;52.374;4.816;2023-02-19T09:15:03;102231.0;;;10.25;100.0
37420;BME280;47344;52.374;4.816;2023-02-19T09:18:16;102230.0;;;10.35;100.0
37420;BME280;47344;52.374;4.816;2023-02-19T09:19:53;102244.0;;;10.26;100.0
37420;BME280;47344;52.374;4.816;2023-02-19T09:21:30;102253.0;;;10.25;100.0
37420;BME280;47344;52.374;4.816;2023-02-19T09:23:06;102271.0;;;10.17;100.0
37420;BME280;47344;52.374;4.816;2023-02-19T09:26:19;102282.0;;;10.19;100.0
37420;BME280;47344;52.374;4.816;2023-02-19T09:27:56;102281.0;;;10.31;100.0
37420;BME280;47344;52.374;4.816;2023-02-19T09:29:33;102287.0;;;10.47;100.0
37420;BME280;47344;52.374;4.816;2023-02-19T09:32:50;102288.0;;;10.45;100.0
37420;BME280;47344;52.374;4.816;2023-02-19T09:34:27;102289.0;;;10.45;100.0
37420;BME280;47344;52.374;4.816;2023-02-19T09:36:05;102288.0;;;10.33;100.0
37420;BME280;47344;52.374;4.816;2023-02-19T09:37:42;102290.0;;;10.49;100.0
37420;BME280;47344;52.374;4.816;2023-02-19T09:40:57;102291.0;;;10.56;100.0
37420;BME280;47344;52.374;4.816;2023-02-19T09:42:41;102305.0;;;10.33;100.0
37420;BME280;47344;52.374;4.816;2023-02-19T09:44:24;102308.0;;;10.34;100.0
37420;BME280;47344;52.374;4.816;2023-02-19T09:46:07;102309.0;;;10.22;100.0
37420;BME280;47344;52.374;4.816;2023-02-19T09:49:50;102313.0;;;10.25;100.0
37420;BME280;47344;52.374;4.816;2023-02-19T09:51:30;102317.0;;;10.35;100.0
37420;BME280;47344;52.374;4.816;2023-02-19T09:53:13;102321.0;;;10.58;100.0
37420;BME280;47344;52.374;4.816;2023-02-19T09:55:00;102330.0;;;10.54;100.0
37420;BME280;47344;52.374;4.816;2023-02-19T09:56:38;102327.0;;;10.55;100.0
37420;BME280;47344;52.374;4.816;2023-02-19T10:00:05;102324.0;;;10.62;100.0
37420;BME280;47344;52.374;4.816;2023-02-19T10:02:00;102327.0;;;10.76;100.0
37420;BME280;47344;52.374;4.816;2023-02-19T10:03:43;102324.0;;;10.53;100.0
37420;BME280;47344;52.374;4.816;2023-02-19T10:05:22;102331.0;;;10.62;100.0
37420;BME280;47344;52.374;4.816;2023-02-19T10:07:03;102338.0;;;10.63;100.0
37420;BME280;47344;52.374;4.816;2023-02-19T10:12:12;102363.0;;;10.62;100.0
37420;BME280;47344;52.374;4.816;2023-02-19T10:14:01;102371.0;;;10.32;100.0
37420;BME280;47344;52.374;4.816;2023-02-19T10:15:44;102377.0;;;10.45;100.0
37420;BME280;47344;52.374;4.816;2023-02-19T10:17:24;102380.0;;;10.64;100.0
37420;BME280;47344;52.374;4.816;2023-02-19T10:20:46;102378.0;;;10.49;100.0
37420;BME280;47344;52.374;4.816;2023-02-19T10:22:25;102387.0;;;10.62;100.0
37420;BME280;47344;52.374;4.816;2023-02-19T10:24:04;102387.0;;;10.48;100.0
37420;BME280;47344;52.374;4.816;2023-02-19T10:27:21;102382.0;;;10.53;100.0
37420;BME280;47344;52.374;4.816;2023-02-19T10:29:03;102381.0;;;10.51;100.0
37420;BME280;47344;52.374;4.816;2023-02-19T10:30:41;102383.0;;;10.53;100.0
37420;BME280;47344;52.374;4.816;2023-02-19T10:32:22;102396.0;;;10.32;100.0
37420;BME280;47344;52.374;4.816;2023-02-19T10:35:51;102395.0;;;10.28;100.0
37420;BME280;47344;52.374;4.816;2023-02-19T10:37:31;102392.0;;;10.27;100.0
37420;BME280;47344;52.374;4.816;2023-02-19T10:39:29;102394.0;;;10.37;100.0
37420;BME280;47344;52.374;4.816;2023-02-19T10:41:16;102394.0;;;10.52;100.0
37420;BME280;47344;52.374;4.816;2023-02-19T10:42:57;102389.0;;;10.54;100.0
37420;BME280;47344;52.374;4.816;2023-02-19T10:44:41;102391.0;;;10.46;100.0
37420;BME280;47344;52.374;4.816;2023-02-19T10:47:59;102386.0;;;10.49;100.0
37420;BME280;47344;52.374;4.816;2023-02-19T10:49:38;102377.0;;;10.59;100.0
37420;BME280;47344;52.374;4.816;2023-02-19T10:51:29;102376.0;;;10.55;100.0
37420;BME280;47344;52.374;4.816;2023-02-19T10:53:20;102383.0;;;10.28;100.0
37420;BME280;47344;52.374;4.816;2023-02-19T10:57:14;102389.0;;;10.28;100.0
37420;BME280;47344;52.374;4.816;2023-02-19T10:59:14;102385.0;;;10.44;100.0
37420;BME280;47344;52.374;4.816;2023-02-19T11:01:09;102395.0;;;10.54;100.0
37420;BME280;47344;52.374;4.816;2023-02-19T11:03:26;102397.0;;;10.46;100.0
37420;BME280;47344;52.374;4.816;2023-02-19T11:05:14;102407.0;;;10.55;100.0
37420;BME280;47344;52.374;4.816;2023-02-19T11:06:53;102415.00000000001;;;10.47;100.0
37420;BME280;47344;52.374;4.816;2023-02-19T11:08:33;102420.0;;;10.42;100.0
37420;BME280;47344;52.374;4.816;2023-02-19T11:10:25;102425.0;;;10.38;100.0
37420;BME280;47344;52.374;4.816;2023-02-19T11:12:05;102429.0;;;9.97;100.0
37420;BME280;47344;52.374;4.816;2023-02-19T11:15:21;102430.0;;;9.93;100.0
37420;BME280;47344;52.374;4.816;2023-02-19T11:17:00;102431.0;;;9.98;100.0
37420;BME280;47344;52.374;4.816;2023-02-19T11:18:40;102440.00000000001;;;9.98;100.0
37420;BME280;47344;52.374;4.816;2023-02-19T11:20:17;102432.0;;;9.84;100.0
37420;BME280;47344;52.374;4.816;2023-02-19T11:23:33;102433.0;;;9.81;100.0
37420;BME280;47344;52.374;4.816;2023-02-19T11:25:18;102442.0;;;9.86;100.0
37420;BME280;47344;52.374;4.816;2023-02-19T11:26:56;102448.0;;;9.84;100.0
37420;BME280;47344;52.374;4.816;2023-02-19T11:28:35;102450.0;;;9.82;100.0
37420;BME280;47344;52.374;4.816;2023-02-19T11:32:22;102445.0;;;9.71;100.0
37420;BME280;47344;52.374;4.816;2023-02-19T11:34:24;102442.0;;;9.71;100.0
37420;BME280;47344;52.374;4.816;2023-02-19T11:36:24;102442.0;;;9.71;100.0
37420;BME280;47344;52.374;4.816;2023-02-19T11:38:07;102443.0;;;9.82;100.0